createdAt,value
2018-05-08T00:00:25.640Z,51.67
2018-05-08T00:02:54.294Z,51.70
2018-05-08T00:05:23.388Z,51.59
2018-05-08T00:07:51.696Z,51.36
2018-05-08T00:10:20.080Z,51.75
2018-05-08T00:12:48.403Z,52.11
2018-05-08T00:15:16.748Z,52.35
2018-05-08T00:17:45.393Z,52.35
2018-05-08T00:20:14.482Z,52.44
2018-05-08T00:22:43.582Z,53.18
2018-05-08T00:25:12.695Z,53.45
2018-05-08T00:27:41.027Z,53.57
2018-05-08T00:30:09.377Z,53.64
2018-05-08T00:32:37.723Z,52.86
2018-05-08T00:35:06.059Z,53.30
2018-05-08T00:37:34.374Z,53.43
2018-05-08T00:40:03.618Z,53.63
2018-05-08T00:42:31.922Z,53.55
2018-05-08T00:45:00.245Z,53.61
2018-05-08T00:47:28.687Z,53.92
2018-05-08T00:49:57.040Z,54.24
2018-05-08T00:52:25.449Z,54.28
2018-05-08T00:55:07.122Z,54.47
2018-05-08T00:57:35.543Z,55.04
2018-05-08T01:00:04.677Z,55.10
2018-05-08T01:02:33.072Z,55.30
2018-05-08T01:05:01.916Z,55.88
2018-05-08T01:07:30.142Z,55.89
2018-05-08T01:09:58.596Z,56.02
2018-05-08T01:12:26.944Z,55.92
2018-05-08T01:14:55.279Z,56.37
2018-05-08T01:17:24.038Z,56.66
2018-05-08T01:19:52.350Z,56.49
2018-05-08T01:22:20.682Z,56.87
2018-05-08T01:24:49.035Z,56.92
2018-05-08T01:27:17.376Z,57.13
2018-05-08T01:29:45.733Z,57.48
2018-05-08T01:32:14.127Z,57.44
2018-05-08T01:34:43.199Z,58.19
2018-05-08T01:37:11.508Z,57.65
2018-05-08T01:39:40.677Z,58.02
2018-05-08T01:42:08.974Z,58.39
2018-05-08T01:44:38.076Z,58.25
2018-05-08T01:47:06.440Z,58.52
2018-05-08T01:49:34.733Z,58.70
2018-05-08T01:52:03.815Z,58.73
2018-05-08T01:54:32.169Z,58.46
2018-05-08T01:57:00.506Z,58.70
2018-05-08T01:59:29.727Z,58.79
2018-05-08T02:01:58.448Z,58.74
2018-05-08T02:04:26.769Z,58.87
2018-05-08T02:06:55.115Z,59.32
2018-05-08T02:09:23.463Z,59.43
2018-05-08T02:11:51.810Z,58.82
2018-05-08T02:14:20.147Z,59.43
2018-05-08T02:16:48.475Z,59.00
2018-05-08T02:19:16.795Z,59.69
2018-05-08T02:21:45.152Z,59.77
2018-05-08T02:24:13.996Z,59.53
2018-05-08T02:26:42.325Z,58.96
2018-05-08T02:29:10.633Z,59.44
2018-05-08T02:31:38.962Z,59.61
2018-05-08T02:34:07.268Z,59.23
2018-05-08T02:36:35.607Z,59.66
2018-05-08T02:39:03.948Z,60.16
2018-05-08T02:41:33.047Z,60.54
2018-05-08T02:44:02.145Z,60.59
2018-05-08T02:46:30.903Z,60.33
2018-05-08T02:48:59.219Z,60.39
2018-05-08T02:51:28.298Z,60.31
2018-05-08T02:53:56.645Z,61.36
2018-05-08T02:56:25.042Z,61.72
2018-05-08T02:58:53.407Z,62.15
2018-05-08T03:01:21.731Z,62.25
2018-05-08T03:03:50.814Z,62.86
2018-05-08T03:06:19.123Z,63.15
2018-05-08T03:08:48.555Z,63.16
2018-05-08T03:11:16.890Z,62.69
2018-05-08T03:13:45.974Z,62.62
2018-05-08T03:16:14.345Z,62.85
2018-05-08T03:18:42.654Z,63.22
2018-05-08T03:21:10.961Z,62.98
2018-05-08T03:23:39.286Z,63.61
2018-05-08T03:26:07.607Z,64.00
2018-05-08T03:28:35.919Z,63.76
2018-05-08T03:31:04.591Z,63.52
2018-05-08T03:33:32.905Z,63.96
2018-05-08T03:36:01.218Z,63.79
2018-05-08T03:38:29.573Z,63.92
2018-05-08T03:40:58.682Z,63.83
2018-05-08T03:43:26.995Z,63.87
2018-05-08T03:45:55.361Z,63.91
2018-05-08T03:48:23.688Z,63.94
2018-05-08T03:50:52.018Z,63.62
2018-05-08T03:53:20.679Z,63.52
2018-05-08T03:55:49.755Z,63.59
2018-05-08T03:58:18.063Z,63.53
2018-05-08T04:01:03.898Z,63.93
2018-05-08T04:03:49.841Z,63.97
2018-05-08T04:06:37.341Z,63.95
2018-05-08T04:09:05.647Z,64.35
2018-05-08T04:11:34.744Z,64.08
2018-05-08T04:14:04.240Z,63.75
2018-05-08T04:16:33.317Z,63.39
2018-05-08T04:19:01.612Z,63.62
2018-05-08T04:21:30.719Z,63.52
2018-05-08T04:23:59.084Z,63.31
2018-05-08T04:26:27.407Z,63.53
2018-05-08T04:28:55.819Z,63.53
2018-05-08T04:31:24.166Z,63.32
2018-05-08T04:33:52.514Z,63.23
2018-05-08T04:36:20.968Z,62.35
2018-05-08T04:38:49.325Z,62.29
2018-05-08T04:41:17.694Z,61.99
2018-05-08T04:43:46.919Z,61.60
2018-05-08T04:46:15.226Z,61.34
2018-05-08T04:48:43.559Z,60.80
2018-05-08T04:51:11.939Z,60.52
2018-05-08T04:53:40.321Z,60.25
2018-05-08T04:56:08.695Z,60.11
2018-05-08T04:58:38.019Z,59.67
2018-05-08T05:01:06.398Z,59.83
2018-05-08T05:03:34.782Z,59.24
2018-05-08T05:06:03.268Z,59.36
2018-05-08T05:08:31.715Z,59.08
2018-05-08T05:11:00.159Z,58.79
2018-05-08T05:13:28.550Z,58.66
2018-05-08T05:15:56.898Z,58.08
2018-05-08T05:18:26.008Z,57.91
2018-05-08T05:20:55.859Z,57.72
2018-05-08T05:23:24.235Z,57.30
2018-05-08T05:25:52.557Z,56.98
2018-05-08T05:28:21.030Z,56.53
2018-05-08T05:30:49.413Z,56.17
2018-05-08T05:33:17.713Z,55.67
2018-05-08T05:35:46.805Z,55.64
2018-05-08T05:38:16.056Z,55.66
2018-05-08T05:40:44.450Z,55.32
2018-05-08T05:43:13.181Z,54.54
2018-05-08T05:45:42.345Z,53.90
2018-05-08T05:48:10.692Z,53.98
2018-05-08T05:50:39.159Z,53.80
2018-05-08T05:53:07.474Z,53.48
2018-05-08T05:55:35.807Z,53.25
2018-05-08T05:58:04.172Z,52.15
2018-05-08T06:00:33.235Z,53.49
2018-05-08T06:03:01.554Z,53.53
2018-05-08T06:05:30.356Z,53.30
2018-05-08T06:07:58.688Z,53.84
2018-05-08T06:10:27.001Z,53.74
2018-05-08T06:12:55.355Z,52.91
2018-05-08T06:15:23.676Z,52.48
2018-05-08T06:17:52.037Z,51.79
2018-05-08T06:20:20.371Z,52.45
2018-05-08T06:22:48.688Z,51.67
2018-05-08T06:25:17.780Z,51.17
2018-05-08T06:27:47.088Z,51.06
2018-05-08T06:30:15.395Z,51.29
2018-05-08T06:32:43.742Z,51.36
2018-05-08T06:35:12.878Z,50.57
2018-05-08T06:37:41.221Z,49.96
2018-05-08T06:40:09.645Z,49.26
2018-05-08T06:42:37.913Z,48.96
2018-05-08T06:45:06.225Z,48.67
2018-05-08T06:47:34.570Z,48.22
2018-05-08T06:50:03.449Z,49.55
2018-05-08T06:52:31.787Z,49.11
2018-05-08T06:55:00.978Z,48.41
2018-05-08T06:57:29.998Z,47.71
2018-05-08T06:59:59.098Z,46.44
2018-05-08T07:02:27.388Z,47.02
2018-05-08T07:04:55.734Z,46.25
2018-05-08T07:07:24.840Z,46.41
2018-05-08T07:09:53.908Z,46.18
2018-05-08T07:12:22.524Z,45.63
2018-05-08T07:14:51.624Z,45.38
2018-05-08T07:17:20.723Z,44.96
2018-05-08T07:19:49.095Z,44.66
2018-05-08T07:22:18.192Z,44.24
2018-05-08T07:24:46.540Z,44.73
2018-05-08T07:27:14.891Z,44.37
2018-05-08T07:29:43.232Z,43.55
2018-05-08T07:32:11.551Z,42.22
2018-05-08T07:34:39.990Z,41.54
2018-05-08T07:37:09.077Z,40.99
2018-05-08T07:39:38.182Z,40.74
2018-05-08T07:42:07.319Z,40.99
2018-05-08T07:44:36.405Z,41.81
2018-05-08T07:47:04.876Z,40.60
2018-05-08T07:49:33.228Z,39.10
2018-05-08T07:52:02.301Z,39.25
2018-05-08T07:54:30.644Z,39.09
2018-05-08T07:56:59.151Z,38.19
2018-05-08T07:59:27.450Z,38.18
2018-05-08T08:01:55.767Z,38.26
2018-05-08T08:04:24.095Z,38.08
2018-05-08T08:06:52.438Z,37.66
2018-05-08T08:09:20.795Z,37.82
2018-05-08T08:11:49.155Z,37.39
2018-05-08T08:14:18.251Z,36.97
2018-05-08T08:16:47.344Z,37.25
2018-05-08T08:19:16.704Z,37.75
2018-05-08T08:21:45.014Z,36.61
2018-05-08T08:24:13.317Z,36.67
2018-05-08T08:26:41.654Z,35.61
2018-05-08T08:29:09.972Z,35.25
2018-05-08T08:31:38.295Z,35.36
2018-05-08T08:34:06.649Z,34.59
2018-05-08T08:36:34.956Z,34.13
2018-05-08T08:39:03.275Z,34.28
2018-05-08T08:41:32.478Z,34.21
2018-05-08T08:44:01.622Z,34.02
2018-05-08T08:46:30.066Z,33.44
2018-05-08T08:48:58.330Z,33.60
2018-05-08T08:51:26.702Z,33.26
2018-05-08T08:53:55.067Z,33.30
2018-05-08T08:56:23.720Z,32.75
2018-05-08T08:58:52.040Z,33.33
2018-05-08T09:01:20.367Z,32.27
2018-05-08T09:03:48.950Z,31.58
2018-05-08T09:06:17.276Z,30.19
2018-05-08T09:08:45.817Z,30.72
2018-05-08T09:11:14.248Z,30.87
2018-05-08T09:13:42.547Z,31.47
2018-05-08T09:16:11.639Z,31.44
2018-05-08T09:18:40.016Z,31.69
2018-05-08T09:21:09.112Z,31.92
2018-05-08T09:23:38.198Z,31.35
2018-05-08T09:26:07.510Z,31.03
2018-05-08T09:28:37.490Z,31.25
2018-05-08T09:31:05.793Z,31.62
2018-05-08T09:33:34.139Z,31.45
2018-05-08T09:36:02.445Z,30.48
2018-05-08T09:38:30.748Z,30.49
2018-05-08T09:40:59.130Z,30.63
2018-05-08T09:43:27.448Z,30.21
2018-05-08T09:45:55.776Z,30.15
2018-05-08T09:48:24.411Z,29.90
2018-05-08T09:50:52.786Z,29.66
2018-05-08T09:53:21.823Z,29.47
2018-05-08T09:55:50.943Z,29.71
2018-05-08T09:58:19.259Z,29.35
2018-05-08T10:00:47.569Z,29.59
2018-05-08T10:03:15.919Z,29.37
2018-05-08T10:05:44.224Z,29.78
2018-05-08T10:08:13.326Z,29.27
2018-05-08T10:10:42.647Z,29.47
2018-05-08T10:13:11.759Z,29.46
2018-05-08T10:15:41.034Z,28.75
2018-05-08T10:18:10.179Z,28.96
2018-05-08T10:20:39.392Z,28.41
2018-05-08T10:23:07.679Z,28.36
2018-05-08T10:25:36.041Z,27.57
2018-05-08T10:28:04.345Z,28.32
2018-05-08T10:30:32.663Z,28.32
2018-05-08T10:33:01.380Z,28.16
2018-05-08T10:35:30.414Z,27.82
2018-05-08T10:37:58.787Z,28.04
2018-05-08T10:40:27.163Z,28.48
2018-05-08T10:42:55.516Z,28.68
2018-05-08T10:45:23.837Z,28.39
2018-05-08T10:47:52.977Z,28.42
2018-05-08T10:50:21.293Z,28.81
2018-05-08T10:52:49.648Z,28.58
2018-05-08T10:55:18.505Z,28.03
2018-05-08T10:57:46.822Z,27.42
2018-05-08T11:00:15.131Z,27.14
2018-05-08T11:02:43.496Z,27.34
2018-05-08T11:05:11.804Z,27.02
2018-05-08T11:07:40.122Z,27.12
2018-05-08T11:10:08.500Z,26.57
2018-05-08T11:12:36.830Z,26.68
2018-05-08T11:15:05.911Z,26.87
2018-05-08T11:17:34.662Z,27.43
2018-05-08T11:20:02.986Z,27.97
2018-05-08T11:22:32.071Z,27.67
2018-05-08T11:25:00.410Z,26.32
2018-05-08T11:27:28.708Z,26.66
2018-05-08T11:29:57.101Z,26.38
2018-05-08T11:32:25.488Z,26.26
2018-05-08T11:34:53.867Z,26.34
2018-05-08T11:37:22.204Z,26.36
2018-05-08T11:39:50.741Z,26.37
2018-05-08T11:42:19.840Z,26.21
2018-05-08T11:44:48.201Z,26.04
2018-05-08T11:47:16.528Z,26.49
2018-05-08T11:49:44.855Z,26.53
2018-05-08T11:52:13.213Z,26.25
2018-05-08T11:54:41.570Z,25.65
2018-05-08T11:57:09.930Z,26.23
2018-05-08T11:59:38.262Z,26.52
2018-05-08T12:02:06.810Z,26.38
2018-05-08T12:04:35.139Z,26.53
2018-05-08T12:07:03.500Z,25.92
2018-05-08T12:09:31.841Z,24.82
2018-05-08T12:12:00.148Z,23.94
2018-05-08T12:14:28.477Z,24.30
2018-05-08T12:16:56.827Z,24.62
2018-05-08T12:19:25.135Z,24.86
2018-05-08T12:21:54.246Z,24.66
2018-05-08T12:24:23.470Z,25.04
2018-05-08T12:26:51.821Z,24.81
2018-05-08T12:29:20.125Z,24.87
2018-05-08T12:31:48.502Z,24.71
2018-05-08T12:34:16.812Z,25.21
2018-05-08T12:36:45.178Z,24.84
2018-05-08T12:39:13.531Z,25.27
2018-05-08T12:41:41.876Z,24.29
2018-05-08T12:44:10.964Z,23.68
2018-05-08T12:46:40.338Z,24.08
2018-05-08T12:49:08.647Z,24.17
2018-05-08T12:51:37.752Z,23.93
2018-05-08T12:54:06.077Z,25.25
2018-05-08T12:56:34.392Z,25.68
2018-05-08T12:59:02.756Z,25.62
2018-05-08T13:01:31.082Z,25.50
2018-05-08T13:03:59.432Z,26.45
2018-05-08T13:06:27.793Z,25.46
2018-05-08T13:08:56.515Z,24.97
2018-05-08T13:11:24.833Z,25.21
2018-05-08T13:13:53.164Z,25.44
2018-05-08T13:16:22.311Z,26.31
2018-05-08T13:18:51.389Z,26.03
2018-05-08T13:21:19.715Z,25.24
2018-05-08T13:23:48.067Z,25.41
2018-05-08T13:26:16.414Z,24.46
2018-05-08T13:28:44.762Z,23.72
2018-05-08T13:31:13.474Z,23.83
2018-05-08T13:33:41.596Z,24.14
2018-05-08T13:36:09.919Z,24.45
2018-05-08T13:38:39.064Z,24.34
2018-05-08T13:41:07.367Z,24.47
2018-05-08T13:43:35.683Z,23.97
2018-05-08T13:46:04.061Z,23.82
2018-05-08T13:48:32.397Z,24.68
2018-05-08T13:51:00.746Z,24.53
2018-05-08T13:53:29.300Z,24.56
2018-05-08T13:55:57.624Z,24.12
2018-05-08T13:58:25.962Z,24.41
2018-05-08T14:00:54.351Z,25.31
2018-05-08T14:03:23.406Z,25.28
2018-05-08T14:05:51.713Z,25.14
2018-05-08T14:08:20.819Z,25.42
2018-05-08T14:10:49.137Z,25.01
2018-05-08T14:13:17.443Z,24.91
2018-05-08T14:15:46.218Z,25.01
2018-05-08T14:18:14.523Z,24.50
2018-05-08T14:20:43.639Z,24.36
2018-05-08T14:23:12.030Z,23.90
2018-05-08T14:25:40.370Z,24.32
2018-05-08T14:28:09.495Z,24.12
2018-05-08T14:30:37.867Z,24.12
2018-05-08T14:33:06.186Z,23.91
2018-05-08T14:35:34.515Z,24.93
2018-05-08T14:38:03.867Z,25.31
2018-05-08T14:40:32.199Z,24.91
2018-05-08T14:43:00.544Z,24.05
2018-05-08T14:45:28.892Z,24.25
2018-05-08T14:47:57.212Z,24.73
2018-05-08T14:50:25.528Z,24.69
2018-05-08T14:52:53.898Z,24.81
2018-05-08T14:55:22.201Z,24.15
2018-05-08T14:57:50.530Z,24.02
2018-05-08T15:00:19.061Z,24.42
2018-05-08T15:02:47.398Z,24.40
2018-05-08T15:05:16.472Z,24.77
2018-05-08T15:07:44.824Z,24.71
2018-05-08T15:10:13.164Z,24.39
2018-05-08T15:12:41.458Z,24.40
2018-05-08T15:15:09.821Z,24.25
2018-05-08T15:17:38.914Z,24.38
2018-05-08T15:20:07.992Z,24.70
2018-05-08T15:22:37.595Z,24.68
2018-05-08T15:25:05.896Z,24.49
2018-05-08T15:27:34.270Z,24.79
2018-05-08T15:30:02.633Z,24.58
2018-05-08T15:32:30.949Z,23.79
2018-05-08T15:34:59.281Z,24.31
2018-05-08T15:37:27.684Z,23.95
2018-05-08T15:39:56.010Z,23.77
2018-05-08T15:42:24.349Z,24.22
2018-05-08T15:44:53.160Z,24.20
2018-05-08T15:47:21.509Z,24.46
2018-05-08T15:49:49.788Z,24.23
2018-05-08T15:52:18.875Z,24.30
2018-05-08T15:54:47.963Z,24.35
2018-05-08T15:57:16.279Z,24.48
2018-05-08T15:59:44.624Z,24.39
2018-05-08T16:02:13.037Z,24.52
2018-05-08T16:04:41.320Z,24.76
2018-05-08T16:07:10.071Z,25.04
2018-05-08T16:09:39.202Z,25.16
2018-05-08T16:12:07.549Z,25.32
2018-05-08T16:14:36.691Z,25.15
2018-05-08T16:17:05.020Z,24.96
2018-05-08T16:19:34.102Z,24.55
2018-05-08T16:22:02.538Z,25.18
2018-05-08T16:24:30.870Z,25.56
2018-05-08T16:26:59.196Z,25.41
2018-05-08T16:29:27.919Z,25.18
2018-05-08T16:31:56.251Z,24.87
2018-05-08T16:34:24.560Z,24.86
2018-05-08T16:36:52.898Z,24.45
2018-05-08T16:39:21.296Z,25.52
2018-05-08T16:41:49.560Z,25.68
2018-05-08T16:44:17.934Z,25.75
2018-05-08T16:46:46.248Z,25.79
2018-05-08T16:49:14.592Z,25.06
2018-05-08T16:51:43.866Z,24.60
2018-05-08T16:54:12.159Z,24.73
2018-05-08T16:56:41.276Z,24.83
2018-05-08T16:59:09.631Z,24.73
2018-05-08T17:01:37.974Z,25.26
2018-05-08T17:04:06.284Z,25.57
2018-05-08T17:06:35.232Z,25.58
2018-05-08T17:09:03.601Z,25.97
2018-05-08T17:11:31.953Z,25.64
2018-05-08T17:14:00.600Z,25.79
2018-05-08T17:16:28.904Z,26.14
2018-05-08T17:18:57.990Z,26.39
2018-05-08T17:21:26.381Z,26.44
2018-05-08T17:23:54.717Z,25.98
2018-05-08T17:26:23.082Z,26.18
2018-05-08T17:28:51.449Z,26.42
2018-05-08T17:31:19.767Z,26.41
2018-05-08T17:33:48.136Z,26.26
2018-05-08T17:36:16.969Z,26.31
2018-05-08T17:38:45.314Z,26.12
2018-05-08T17:41:13.659Z,26.76
2018-05-08T17:43:42.025Z,26.67
2018-05-08T17:46:10.365Z,26.73
2018-05-08T17:48:38.709Z,26.98
2018-05-08T17:51:07.106Z,26.89
2018-05-08T17:53:35.491Z,26.81
2018-05-08T17:56:03.809Z,27.02
2018-05-08T17:58:32.385Z,27.18
2018-05-08T18:01:00.747Z,26.95
2018-05-08T18:03:29.049Z,26.77
2018-05-08T18:05:58.160Z,27.31
2018-05-08T18:08:26.483Z,27.56
2018-05-08T18:10:54.830Z,27.70
2018-05-08T18:13:23.180Z,27.74
2018-05-08T18:15:52.261Z,27.84
2018-05-08T18:18:20.620Z,27.86
2018-05-08T18:20:49.839Z,28.39
2018-05-08T18:23:18.923Z,28.61
2018-05-08T18:25:47.256Z,28.63
2018-05-08T18:28:15.638Z,28.39
2018-05-08T18:30:43.991Z,28.90
2018-05-08T18:33:13.098Z,28.70
2018-05-08T18:35:41.450Z,29.07
2018-05-08T18:38:09.792Z,29.32
2018-05-08T18:40:38.139Z,29.65
2018-05-08T18:43:06.895Z,29.60
2018-05-08T18:45:35.213Z,29.62
2018-05-08T18:48:03.563Z,29.57
2018-05-08T18:50:31.901Z,29.51
2018-05-08T18:53:00.269Z,29.74
2018-05-08T18:55:28.580Z,29.97
2018-05-08T18:57:56.962Z,29.70
2018-05-08T19:00:25.285Z,30.30
2018-05-08T19:02:53.614Z,30.22
2018-05-08T19:05:22.416Z,30.18
2018-05-08T19:07:50.733Z,30.19
2018-05-08T19:10:22.029Z,30.38
2018-05-08T19:12:50.504Z,31.00
2018-05-08T19:15:26.529Z,30.77
2018-05-08T19:17:54.963Z,31.21
2018-05-08T19:20:24.065Z,31.42
2018-05-08T19:22:53.286Z,31.60
2018-05-08T19:25:21.836Z,31.54
2018-05-08T19:27:50.192Z,32.21
2018-05-08T19:30:24.030Z,32.05
2018-05-08T19:32:52.395Z,32.10
2018-05-08T19:35:26.284Z,32.12
2018-05-08T19:38:00.305Z,32.11
2018-05-08T19:40:28.835Z,32.16
2018-05-08T19:42:57.158Z,32.29
2018-05-08T19:45:25.500Z,32.20
2018-05-08T19:47:53.871Z,32.78
2018-05-08T19:50:22.225Z,32.87
2018-05-08T19:52:51.418Z,32.96
2018-05-08T19:55:19.778Z,33.52
2018-05-08T19:57:48.192Z,33.54
2018-05-08T20:00:16.476Z,33.30
2018-05-08T20:02:44.961Z,33.81
2018-05-08T20:05:13.392Z,33.42
2018-05-08T20:07:41.863Z,33.93
2018-05-08T20:10:10.403Z,33.57
2018-05-08T20:12:38.849Z,33.77
2018-05-08T20:15:07.174Z,33.99
2018-05-08T20:17:35.529Z,33.75
2018-05-08T20:20:04.611Z,33.76
2018-05-08T20:22:34.104Z,33.88
2018-05-08T20:25:02.919Z,33.95
2018-05-08T20:27:32.042Z,34.06
2018-05-08T20:30:00.758Z,34.25
2018-05-08T20:32:29.125Z,34.40
2018-05-08T20:34:57.454Z,34.51
2018-05-08T20:37:25.810Z,34.87
2018-05-08T20:39:54.960Z,34.88
2018-05-08T20:42:23.375Z,34.64
2018-05-08T20:44:51.685Z,34.87
2018-05-08T20:47:20.469Z,35.03
2018-05-08T20:49:48.789Z,35.33
2018-05-08T20:52:17.165Z,35.40
2018-05-08T20:54:46.278Z,35.46
2018-05-08T20:57:14.605Z,35.67
2018-05-08T20:59:42.945Z,36.08
2018-05-08T21:02:15.314Z,35.99
2018-05-08T21:04:43.629Z,35.92
2018-05-08T21:07:11.994Z,36.17
2018-05-08T21:09:40.600Z,36.08
2018-05-08T21:12:08.950Z,35.99
2018-05-08T21:14:37.284Z,36.05
2018-05-08T21:17:05.661Z,36.50
2018-05-08T21:19:34.794Z,36.80
2018-05-08T21:22:03.122Z,37.17
2018-05-08T21:24:31.459Z,37.43
2018-05-08T21:26:59.780Z,37.61
2018-05-08T21:29:34.127Z,37.66
2018-05-08T21:32:02.472Z,37.61
2018-05-08T21:34:30.804Z,38.04
2018-05-08T21:36:59.197Z,38.27
2018-05-08T21:39:27.522Z,38.44
2018-05-08T21:41:56.621Z,38.28
2018-05-08T21:44:25.754Z,38.40
2018-05-08T21:46:55.259Z,38.27
2018-05-08T21:49:23.588Z,38.51
2018-05-08T21:51:52.299Z,38.45
2018-05-08T21:54:20.612Z,38.42
2018-05-08T21:56:48.926Z,38.62
2018-05-08T21:59:17.272Z,38.46
2018-05-08T22:01:45.577Z,38.64
2018-05-08T22:04:13.968Z,38.42
2018-05-08T22:06:42.305Z,38.80
2018-05-08T22:09:10.627Z,39.04
2018-05-08T22:11:39.055Z,39.13
2018-05-08T22:14:07.609Z,38.98
2018-05-08T22:16:35.932Z,38.73
2018-05-08T22:19:04.275Z,38.78
2018-05-08T22:21:32.654Z,38.69
2018-05-08T22:24:01.012Z,38.70
2018-05-08T22:26:30.128Z,38.64
2018-05-08T22:28:58.481Z,38.89
2018-05-08T22:31:26.791Z,38.72
2018-05-08T22:33:55.133Z,38.68
2018-05-08T22:36:23.640Z,38.31
2018-05-08T22:38:52.749Z,38.20
2018-05-08T22:41:21.099Z,38.23
2018-05-08T22:43:49.463Z,38.42
2018-05-08T22:46:17.768Z,38.23
2018-05-08T22:48:46.867Z,38.88
2018-05-08T22:51:16.011Z,39.07
2018-05-08T22:53:44.317Z,39.14
2018-05-08T22:56:12.696Z,39.06
2018-05-08T22:58:42.229Z,38.91
2018-05-08T23:01:11.313Z,39.40
2018-05-08T23:03:40.413Z,39.45
2018-05-08T23:06:09.514Z,39.75
2018-05-08T23:08:38.589Z,39.60
2018-05-08T23:11:06.900Z,40.15
2018-05-08T23:13:35.269Z,40.18
2018-05-08T23:16:03.593Z,40.06
2018-05-08T23:18:31.895Z,39.90
2018-05-08T23:21:00.724Z,39.77
2018-05-08T23:23:29.030Z,39.96
2018-05-08T23:25:57.341Z,40.29
2018-05-08T23:28:25.749Z,40.69
2018-05-08T23:30:54.069Z,40.36
2018-05-08T23:33:22.378Z,40.53
2018-05-08T23:35:50.749Z,40.99
2018-05-08T23:38:21.136Z,41.04
2018-05-08T23:40:49.668Z,40.84
2018-05-08T23:43:18.038Z,41.13
2018-05-08T23:45:46.378Z,40.78
2018-05-08T23:48:14.703Z,41.00
2018-05-08T23:50:43.066Z,40.78
2018-05-08T23:53:12.173Z,41.33
2018-05-08T23:55:40.653Z,41.59
2018-05-08T23:58:09.017Z,41.73
